Time;durP1;ratioP1;P1;durP2;ratioP2;P2;SDS_P1;SDS_P2;PMS_P1;PMS_P2;Temp;Humidity;BMP_temperature;BMP_pressure;BME280_temperature;BME280_humidity;BME280_pressure;Samples;Min_cycle;Max_cycle;Signal;HPM_P1;HPM_P2
2021/11/28 00:02:20;;;;;;;23.08;14.60;;;4.40;99.90;;;;;;5133008;28;20508;-72
2021/11/28 00:04:50;;;;;;;21.48;13.45;;;4.30;99.90;;;;;;5134706;27;20039;-72
2021/11/28 00:14:46;;;;;;;21.02;14.45;;;4.30;99.90;;;;;;5133160;28;20387;-72
2021/11/28 00:17:12;;;;;;;21.75;14.70;;;4.30;99.90;;;;;;5133565;27;20096;-72
2021/11/28 00:19:40;;;;;;;22.10;13.20;;;4.30;99.90;;;;;;5133824;27;20042;-72
2021/11/28 00:22:06;;;;;;;18.42;13.32;;;4.30;99.90;;;;;;5134083;27;20066;-72
2021/11/28 00:24:33;;;;;;;19.90;13.15;;;4.30;99.90;;;;;;5134104;27;20039;-72
2021/11/28 00:27:00;;;;;;;22.58;13.85;;;4.20;99.90;;;;;;5133373;27;20088;-72
2021/11/28 00:29:26;;;;;;;18.73;12.60;;;4.20;99.90;;;;;;5134331;27;20114;-72
2021/11/28 00:31:53;;;;;;;20.33;13.32;;;4.20;99.90;;;;;;5133784;27;20537;-72
2021/11/28 00:34:18;;;;;;;21.40;14.48;;;4.20;99.90;;;;;;5133794;27;20168;-72
2021/11/28 00:36:44;;;;;;;22.60;14.15;;;4.20;99.90;;;;;;5133423;27;20078;-71
2021/11/28 00:39:10;;;;;;;24.23;15.63;;;4.20;99.90;;;;;;5134490;27;20387;-72
2021/11/28 00:41:35;;;;;;;24.65;15.43;;;4.20;99.90;;;;;;5137997;27;20528;-72
2021/11/28 00:44:01;;;;;;;25.40;15.55;;;4.20;99.90;;;;;;5136278;27;20404;-72
2021/11/28 00:46:26;;;;;;;23.50;15.35;;;4.20;99.90;;;;;;5137387;27;20039;-72
2021/11/28 00:48:52;;;;;;;27.77;16.17;;;4.20;99.90;;;;;;5137337;27;20047;-72
2021/11/28 00:53:48;;;;;;;23.17;15.55;;;4.20;99.90;;;;;;5136081;27;20043;-72
2021/11/28 00:56:14;;;;;;;30.73;16.80;;;4.20;99.90;;;;;;5118665;27;20039;-72
2021/11/28 00:58:40;;;;;;;31.95;17.75;;;4.10;99.90;;;;;;5137546;27;20099;-72
2021/11/28 01:01:06;;;;;;;25.00;16.15;;;4.20;99.90;;;;;;5137363;27;20039;-72
2021/11/28 01:03:32;;;;;;;26.27;15.18;;;4.10;99.90;;;;;;5135836;27;20040;-72
2021/11/28 01:05:57;;;;;;;25.35;15.07;;;4.10;99.90;;;;;;5136744;27;20046;-72
2021/11/28 01:08:23;;;;;;;24.27;14.73;;;4.10;99.90;;;;;;5136892;27;20484;-72
2021/11/28 01:10:49;;;;;;;26.50;15.93;;;4.10;99.90;;;;;;5137064;27;20063;-72
2021/11/28 01:13:16;;;;;;;30.10;18.10;;;4.10;99.90;;;;;;5137203;27;20038;-72
2021/11/28 01:15:42;;;;;;;26.80;17.08;;;4.10;99.90;;;;;;5137237;27;20119;-72
2021/11/28 01:18:08;;;;;;;26.58;16.33;;;4.10;99.90;;;;;;5136943;27;20063;-72
2021/11/28 01:20:34;;;;;;;26.20;15.80;;;4.10;99.90;;;;;;5137006;27;20046;-72
2021/11/28 01:23:00;;;;;;;28.77;17.70;;;4.10;99.90;;;;;;5136917;27;20122;-72
2021/11/28 01:25:26;;;;;;;28.35;17.17;;;4.10;99.90;;;;;;5136698;27;20129;-72
2021/11/28 01:27:52;;;;;;;30.20;17.92;;;4.10;99.90;;;;;;5135298;27;20537;-72
2021/11/28 01:30:18;;;;;;;31.88;17.48;;;4.00;99.90;;;;;;5136059;27;20062;-72
2021/11/28 01:32:44;;;;;;;31.58;19.08;;;4.00;99.90;;;;;;5136808;27;20085;-72
2021/11/28 01:35:13;;;;;;;30.77;18.48;;;4.00;99.90;;;;;;5136715;27;20068;-72
2021/11/28 01:37:40;;;;;;;35.58;18.35;;;4.00;99.90;;;;;;5135108;27;20043;-72
2021/11/28 01:40:09;;;;;;;36.85;20.23;;;4.00;99.90;;;;;;5136512;27;20070;-72
2021/11/28 01:42:40;;;;;;;35.13;17.60;;;4.00;99.90;;;;;;5136661;27;20046;-72
2021/11/28 01:45:09;;;;;;;32.20;18.33;;;4.00;99.90;;;;;;5136522;27;20043;-72
2021/11/28 01:47:35;;;;;;;28.75;16.15;;;3.90;99.90;;;;;;5136227;27;20053;-72
2021/11/28 01:50:01;;;;;;;30.88;18.05;;;3.90;99.90;;;;;;5136048;27;20063;-72
2021/11/28 01:52:26;;;;;;;29.00;17.13;;;3.90;99.90;;;;;;5135121;27;20518;-72
2021/11/28 01:54:52;;;;;;;32.65;18.38;;;3.90;99.90;;;;;;5136107;27;20043;-72
2021/11/28 01:57:18;;;;;;;28.50;17.67;;;3.80;99.90;;;;;;5134462;27;20046;-72
2021/11/28 01:59:44;;;;;;;30.15;19.25;;;3.80;99.90;;;;;;5134946;27;20043;-72
2021/11/28 02:02:09;;;;;;;27.67;17.60;;;3.80;99.90;;;;;;5136221;27;20046;-72
2021/11/28 02:04:35;;;;;;;30.30;17.60;;;3.80;99.90;;;;;;5135994;27;20046;-72
2021/11/28 02:07:01;;;;;;;30.20;18.10;;;3.90;99.90;;;;;;5134438;27;20063;-72
2021/11/28 02:09:27;;;;;;;34.13;18.63;;;3.90;99.90;;;;;;5136134;27;20121;-72
2021/11/28 02:11:53;;;;;;;29.23;17.83;;;3.90;99.90;;;;;;5134499;27;20411;-72
2021/11/28 02:14:19;;;;;;;35.00;19.58;;;3.90;99.90;;;;;;5135954;27;20035;-72
2021/11/28 02:16:46;;;;;;;36.83;20.35;;;3.90;99.90;;;;;;5135364;27;20035;-72
2021/11/28 02:19:12;;;;;;;27.83;16.90;;;3.90;99.90;;;;;;5136060;27;20097;-72
2021/11/28 02:21:38;;;;;;;30.75;18.83;;;4.00;99.90;;;;;;5135801;27;20416;-72
2021/11/28 02:24:04;;;;;;;35.28;19.52;;;4.00;99.90;;;;;;5135504;27;20039;-72
2021/11/28 02:26:30;;;;;;;33.88;19.17;;;4.00;99.90;;;;;;5134801;27;20112;-71
2021/11/28 02:28:57;;;;;;;34.33;19.50;;;4.00;99.90;;;;;;5135703;27;20039;-72
2021/11/28 02:31:23;;;;;;;35.13;18.42;;;4.00;99.90;;;;;;5135408;27;20079;-72
2021/11/28 02:33:49;;;;;;;31.98;19.08;;;4.00;99.90;;;;;;5135620;27;20062;-72
2021/11/28 02:36:14;;;;;;;29.00;19.02;;;4.00;99.90;;;;;;5135034;27;20549;-72
2021/11/28 02:38:40;;;;;;;33.58;19.27;;;4.00;99.90;;;;;;5135372;27;20035;-72
2021/11/28 02:41:06;;;;;;;31.92;19.08;;;4.00;99.90;;;;;;5135153;27;20039;-72
2021/11/28 02:43:32;;;;;;;39.25;19.98;;;4.00;99.90;;;;;;5135201;27;20035;-72
2021/11/28 02:46:05;;;;;;;32.83;19.90;;;3.90;99.90;;;;;;5135077;27;20053;-72
2021/11/28 02:48:31;;;;;;;37.95;20.17;;;4.00;99.90;;;;;;5134361;27;20043;-72
2021/11/28 02:50:58;;;;;;;36.28;20.25;;;3.90;99.90;;;;;;5134994;27;20050;-72
2021/11/28 02:53:25;;;;;;;35.63;20.52;;;4.00;99.90;;;;;;5134418;27;20047;-72
2021/11/28 02:55:55;;;;;;;27.02;17.65;;;3.90;99.90;;;;;;5134805;27;20039;-72
2021/11/28 02:58:23;;;;;;;31.80;19.83;;;3.90;99.90;;;;;;5135233;27;20039;-72
2021/11/28 03:01:02;;;;;;;30.85;18.83;;;3.90;99.90;;;;;;5134861;27;20575;-72
2021/11/28 03:03:28;;;;;;;31.45;18.83;;;3.80;99.90;;;;;;5135149;27;20035;-72
2021/11/28 03:05:53;;;;;;;30.05;17.60;;;3.80;99.90;;;;;;5135050;27;20976;-72
2021/11/28 03:08:19;;;;;;;30.25;19.10;;;3.80;99.90;;;;;;5134580;27;20084;-72
2021/11/28 03:10:50;;;;;;;32.15;19.23;;;3.70;99.90;;;;;;5133848;27;20046;-72
2021/11/28 03:13:31;;;;;;;29.48;17.35;;;3.70;99.90;;;;;;5135294;27;20039;-72
2021/11/28 03:16:00;;;;;;;31.35;17.98;;;3.70;99.90;;;;;;5134972;27;20069;-72
2021/11/28 03:18:28;;;;;;;29.88;17.45;;;3.60;99.90;;;;;;5116690;27;20575;-72
2021/11/28 03:20:56;;;;;;;30.48;17.00;;;3.60;99.90;;;;;;5133542;27;20047;-72
2021/11/28 03:23:25;;;;;;;32.22;18.63;;;3.60;99.90;;;;;;5134614;27;20051;-72
2021/11/28 03:26:05;;;;;;;28.15;17.00;;;3.50;99.90;;;;;;5134006;27;20047;-72
2021/11/28 03:28:31;;;;;;;30.98;17.70;;;3.50;99.90;;;;;;5133468;27;20039;-72
2021/11/28 03:30:57;;;;;;;30.38;18.13;;;3.50;99.90;;;;;;5134477;27;20058;-72
2021/11/28 03:33:22;;;;;;;30.05;17.00;;;3.50;99.90;;;;;;5133510;27;20484;-72
2021/11/28 03:35:50;;;;;;;33.20;19.20;;;3.40;99.90;;;;;;5133973;27;20050;-72
2021/11/28 03:38:15;;;;;;;32.78;18.83;;;3.40;99.90;;;;;;5134227;27;20047;-72
2021/11/28 03:40:41;;;;;;;33.47;18.58;;;3.40;99.90;;;;;;5134275;27;20045;-72
2021/11/28 03:43:07;;;;;;;31.85;19.23;;;3.40;99.90;;;;;;5134313;27;20058;-72
2021/11/28 03:45:33;;;;;;;31.95;19.02;;;3.40;99.90;;;;;;5133842;27;20039;-72
2021/11/28 03:47:59;;;;;;;33.40;18.08;;;3.40;99.90;;;;;;5134062;28;20031;-72
2021/11/28 03:50:24;;;;;;;29.25;18.02;;;3.40;99.90;;;;;;5134405;27;20042;-72
2021/11/28 03:52:50;;;;;;;31.00;18.88;;;3.30;99.90;;;;;;5134179;28;20374;-72
2021/11/28 03:55:16;;;;;;;31.98;18.60;;;3.30;99.90;;;;;;5134311;28;20061;-72
2021/11/28 03:57:42;;;;;;;31.60;17.98;;;3.20;99.90;;;;;;5133791;27;20126;-72
2021/11/28 04:00:10;;;;;;;40.33;20.48;;;3.20;99.90;;;;;;5134020;27;20118;-72
2021/11/28 04:02:37;;;;;;;34.67;19.08;;;3.20;99.90;;;;;;5133531;27;20111;-72
2021/11/28 04:05:04;;;;;;;37.47;21.15;;;3.20;99.90;;;;;;5132732;28;20496;-72
2021/11/28 04:07:31;;;;;;;33.55;19.15;;;3.20;99.90;;;;;;5134028;27;20035;-71
2021/11/28 04:09:57;;;;;;;36.60;19.67;;;3.20;99.90;;;;;;5133392;27;20043;-71
2021/11/28 04:12:23;;;;;;;31.92;19.00;;;3.20;99.90;;;;;;5134003;27;20038;-72
2021/11/28 04:14:48;;;;;;;34.95;18.35;;;3.10;99.90;;;;;;5136590;27;20039;-72
2021/11/28 04:17:14;;;;;;;33.58;19.08;;;3.10;99.90;;;;;;5137646;27;20035;-72
2021/11/28 04:19:40;;;;;;;35.05;19.20;;;3.10;99.90;;;;;;5138401;27;20392;-72
2021/11/28 04:22:06;;;;;;;31.50;17.65;;;3.20;99.90;;;;;;5138402;27;20493;-72
2021/11/28 04:24:32;;;;;;;32.83;18.38;;;3.20;99.90;;;;;;5136595;27;20450;-72
2021/11/28 04:26:57;;;;;;;30.40;17.52;;;3.20;99.90;;;;;;5137410;27;20039;-72
2021/11/28 04:29:23;;;;;;;28.02;17.83;;;3.10;99.90;;;;;;5138009;27;20061;-72
2021/11/28 04:31:49;;;;;;;29.42;17.38;;;3.10;99.90;;;;;;5136546;27;20039;-72
2021/11/28 04:34:17;;;;;;;27.65;17.20;;;3.10;99.90;;;;;;5119397;27;20396;-72
2021/11/28 04:36:43;;;;;;;33.15;18.45;;;3.10;99.90;;;;;;5136037;27;20043;-72
2021/11/28 04:39:09;;;;;;;28.30;17.05;;;3.10;99.90;;;;;;5138237;27;20031;-72
2021/11/28 04:41:35;;;;;;;31.27;17.60;;;3.10;99.90;;;;;;5137643;27;20117;-72
2021/11/28 04:44:01;;;;;;;35.10;19.48;;;3.10;99.90;;;;;;5137759;27;20055;-72
2021/11/28 04:46:27;;;;;;;33.22;18.02;;;3.10;99.90;;;;;;5137075;27;20053;-73
2021/11/28 04:48:52;;;;;;;35.63;20.45;;;3.00;99.90;;;;;;5121293;27;20043;-72
2021/11/28 04:51:18;;;;;;;34.05;19.15;;;2.90;99.90;;;;;;5116925;28;20392;-71
2021/11/28 04:53:43;;;;;;;35.85;19.48;;;2.90;99.90;;;;;;5116848;28;20039;-72
2021/11/28 04:56:09;;;;;;;36.35;20.35;;;2.90;99.90;;;;;;5116496;28;20032;-72
2021/11/28 04:58:34;;;;;;;36.47;20.25;;;2.80;99.90;;;;;;5116584;28;20511;-72
2021/11/28 05:01:00;;;;;;;35.88;19.50;;;2.80;99.90;;;;;;5116947;28;20038;-72
2021/11/28 05:03:26;;;;;;;36.55;20.25;;;2.80;99.90;;;;;;5098666;28;20501;-72
2021/11/28 05:05:52;;;;;;;40.53;22.15;;;2.70;99.90;;;;;;5116449;28;20126;-72
2021/11/28 05:08:17;;;;;;;39.65;20.80;;;2.70;99.90;;;;;;5116924;28;20071;-72
2021/11/28 05:10:43;;;;;;;35.47;21.05;;;2.70;99.90;;;;;;5117075;28;20027;-72
2021/11/28 05:13:09;;;;;;;39.55;22.35;;;2.70;99.90;;;;;;5117029;27;20086;-72
2021/11/28 05:15:34;;;;;;;42.90;21.70;;;2.70;99.90;;;;;;5116308;28;20123;-72
2021/11/28 05:18:00;;;;;;;41.20;22.45;;;2.70;99.90;;;;;;5098084;28;20481;-72
2021/11/28 05:20:25;;;;;;;44.53;23.52;;;2.70;99.90;;;;;;5115320;28;20416;-72
2021/11/28 05:22:51;;;;;;;64.50;26.50;;;2.70;99.90;;;;;;5116897;28;20043;-72
2021/11/28 05:25:17;;;;;;;39.17;22.17;;;2.70;99.90;;;;;;5115258;28;20485;-72
2021/11/28 05:27:46;;;;;;;40.40;22.00;;;2.70;99.90;;;;;;5114706;28;20078;-72
2021/11/28 05:30:11;;;;;;;51.30;24.40;;;2.70;99.90;;;;;;5116676;28;20563;-72
2021/11/28 05:32:37;;;;;;;41.50;23.15;;;2.70;99.90;;;;;;5115473;28;20046;-72
2021/11/28 05:35:04;;;;;;;43.17;21.20;;;2.70;99.90;;;;;;5116341;28;20032;-72
2021/11/28 05:37:30;;;;;;;49.03;22.50;;;2.70;99.90;;;;;;5115929;28;20043;-72
2021/11/28 05:39:56;;;;;;;42.50;22.85;;;2.70;99.90;;;;;;5116102;28;20038;-72
2021/11/28 05:42:22;;;;;;;53.75;24.02;;;2.70;99.90;;;;;;5116201;28;20042;-72
2021/11/28 05:44:47;;;;;;;49.50;21.95;;;2.70;99.90;;;;;;5116020;28;20035;-72
2021/11/28 05:47:13;;;;;;;57.40;23.38;;;2.70;99.90;;;;;;5115581;28;20485;-72
2021/11/28 05:49:39;;;;;;;68.20;22.77;;;2.60;99.90;;;;;;5115873;27;20054;-72
2021/11/28 05:52:05;;;;;;;44.35;20.23;;;2.60;99.90;;;;;;5098001;28;20477;-72
2021/11/28 05:54:30;;;;;;;62.60;21.48;;;2.60;99.90;;;;;;5116245;28;20040;-72
2021/11/28 05:56:56;;;;;;;64.05;22.15;;;2.60;99.90;;;;;;5115213;28;20050;-72
2021/11/28 05:59:22;;;;;;;43.65;19.77;;;2.60;99.90;;;;;;5115652;28;20036;-71
2021/11/28 06:01:47;;;;;;;35.70;19.50;;;2.60;99.90;;;;;;5115786;28;20047;-72
2021/11/28 06:04:13;;;;;;;39.78;19.00;;;2.60;99.90;;;;;;5115643;28;20036;-72
2021/11/28 06:06:39;;;;;;;37.58;18.38;;;2.50;99.90;;;;;;5115242;28;20497;-72
2021/11/28 06:09:05;;;;;;;39.13;17.95;;;2.50;99.90;;;;;;5115366;28;20050;-71
2021/11/28 06:11:30;;;;;;;50.63;18.88;;;2.50;99.90;;;;;;5115250;28;20036;-72
2021/11/28 06:13:56;;;;;;;30.85;17.05;;;2.40;99.90;;;;;;5113919;28;20485;-72
2021/11/28 06:16:22;;;;;;;30.30;16.70;;;2.40;99.90;;;;;;5114096;28;20047;-71
2021/11/28 06:18:48;;;;;;;31.45;15.95;;;2.40;99.90;;;;;;5115076;28;20079;-72
2021/11/28 06:21:13;;;;;;;31.08;18.25;;;2.40;99.90;;;;;;5113795;28;20067;-72
2021/11/28 06:23:39;;;;;;;31.13;17.58;;;2.40;99.90;;;;;;5113960;28;20396;-72
2021/11/28 06:26:06;;;;;;;26.58;15.85;;;2.30;99.90;;;;;;5114685;28;20065;-72
2021/11/28 06:28:33;;;;;;;24.13;15.05;;;2.30;99.90;;;;;;5115199;28;20038;-72
2021/11/28 06:30:58;;;;;;;22.30;14.40;;;2.30;99.90;;;;;;5113784;28;20035;-72
2021/11/28 06:33:24;;;;;;;24.95;15.02;;;2.30;99.90;;;;;;5115264;28;20035;-72
2021/11/28 06:35:50;;;;;;;28.65;16.13;;;2.20;99.90;;;;;;5114570;28;20118;-72
2021/11/28 06:38:15;;;;;;;25.95;14.93;;;2.30;99.90;;;;;;5114575;28;20043;-72
2021/11/28 06:40:41;;;;;;;25.40;14.52;;;2.30;99.90;;;;;;5114742;28;20433;-72
2021/11/28 06:43:07;;;;;;;24.77;14.05;;;2.30;99.90;;;;;;5113378;28;20496;-71
2021/11/28 06:45:33;;;;;;;25.83;15.48;;;2.20;99.90;;;;;;5114466;28;20043;-72
2021/11/28 06:47:59;;;;;;;27.55;15.20;;;2.30;99.90;;;;;;5113923;28;20035;-72
2021/11/28 06:50:26;;;;;;;22.52;14.07;;;2.30;99.90;;;;;;5115183;27;20035;-72
2021/11/28 06:52:51;;;;;;;25.17;14.82;;;2.30;99.90;;;;;;5114573;27;20550;-72
2021/11/28 06:55:17;;;;;;;27.88;15.95;;;2.20;99.90;;;;;;5113709;28;20035;-72
2021/11/28 06:57:43;;;;;;;25.30;15.45;;;2.20;99.90;;;;;;5114198;28;20039;-72
2021/11/28 07:00:09;;;;;;;24.77;14.32;;;2.20;99.90;;;;;;5114844;28;20046;-71
2021/11/28 07:02:35;;;;;;;26.25;14.85;;;2.30;99.90;;;;;;5114536;28;20032;-72
2021/11/28 07:05:01;;;;;;;29.10;15.50;;;2.30;99.90;;;;;;5114770;28;20046;-72
2021/11/28 07:07:27;;;;;;;27.17;15.80;;;2.30;99.90;;;;;;5114027;28;20039;-71
2021/11/28 07:09:53;;;;;;;21.00;13.43;;;2.30;99.90;;;;;;5114573;28;20089;-72
2021/11/28 07:12:20;;;;;;;25.38;15.55;;;2.30;99.90;;;;;;5113081;28;20050;-72
2021/11/28 07:14:45;;;;;;;24.45;14.93;;;2.30;99.90;;;;;;5114535;28;20086;-72
2021/11/28 07:17:11;;;;;;;30.63;16.60;;;2.30;99.90;;;;;;5112662;28;20513;-71
2021/11/28 07:19:36;;;;;;;29.30;15.85;;;2.40;99.90;;;;;;5114183;28;20068;-71
2021/11/28 07:22:03;;;;;;;25.45;14.68;;;2.40;99.90;;;;;;5113974;28;20035;-71
2021/11/28 07:24:28;;;;;;;26.23;14.68;;;2.40;99.90;;;;;;5113991;28;20044;-72
2021/11/28 07:26:54;;;;;;;25.77;15.50;;;2.40;99.90;;;;;;5113429;28;20036;-72
2021/11/28 07:29:20;;;;;;;23.23;13.40;;;2.40;99.90;;;;;;5114262;28;20032;-71
2021/11/28 07:31:46;;;;;;;20.95;12.63;;;2.40;99.90;;;;;;5113007;28;20050;-72
2021/11/28 07:34:12;;;;;;;25.23;13.88;;;2.50;99.90;;;;;;5114336;28;20035;-71
2021/11/28 07:36:38;;;;;;;23.48;13.82;;;2.40;99.90;;;;;;5113614;28;20460;-72
2021/11/28 07:39:07;;;;;;;23.60;13.43;;;2.40;99.90;;;;;;5113680;28;20443;-72
2021/11/28 07:41:33;;;;;;;21.27;12.82;;;2.40;99.90;;;;;;5113943;28;20092;-72
2021/11/28 07:43:58;;;;;;;23.80;13.55;;;2.40;99.90;;;;;;5113880;28;20126;-72
2021/11/28 07:46:24;;;;;;;21.13;13.38;;;2.40;99.90;;;;;;5113305;28;20090;-72
2021/11/28 07:48:50;;;;;;;21.63;12.50;;;2.50;99.90;;;;;;5113127;28;20044;-72
2021/11/28 07:51:16;;;;;;;25.10;13.52;;;2.50;99.90;;;;;;5113605;28;20031;-71
2021/11/28 07:53:45;;;;;;;25.30;13.63;;;2.50;99.90;;;;;;5113614;28;20396;-72
2021/11/28 07:56:10;;;;;;;23.50;14.00;;;2.50;99.90;;;;;;5113489;28;20042;-71
2021/11/28 07:58:36;;;;;;;25.05;13.75;;;2.60;99.90;;;;;;5112703;28;20048;-71
2021/11/28 08:01:01;;;;;;;22.98;14.02;;;2.60;99.90;;;;;;5113617;28;20040;-71
2021/11/28 08:03:27;;;;;;;22.42;13.32;;;2.60;99.90;;;;;;5113622;28;20458;-71
2021/11/28 08:05:58;;;;;;;22.52;13.52;;;2.70;99.90;;;;;;5112156;28;20428;-71
2021/11/28 08:08:23;;;;;;;20.25;12.13;;;2.70;99.90;;;;;;5113571;28;20054;-71
2021/11/28 08:10:49;;;;;;;28.48;14.05;;;2.70;99.90;;;;;;5113769;28;20043;-71
2021/11/28 08:13:15;;;;;;;22.38;12.77;;;2.70;99.90;;;;;;5113749;28;20040;-72
2021/11/28 08:15:41;;;;;;;21.23;12.82;;;2.80;99.90;;;;;;5113179;28;20040;-71
2021/11/28 08:18:06;;;;;;;19.55;10.93;;;2.80;99.90;;;;;;5114045;28;20043;-71
2021/11/28 08:20:32;;;;;;;23.95;11.80;;;2.80;99.90;;;;;;5113415;28;20035;-70
2021/11/28 08:22:58;;;;;;;24.45;12.45;;;2.90;99.90;;;;;;5113144;28;20047;-70
2021/11/28 08:25:24;;;;;;;20.70;11.82;;;3.00;99.90;;;;;;5113555;28;20054;-71
2021/11/28 08:27:49;;;;;;;20.52;11.80;;;3.00;99.90;;;;;;5111659;28;20036;-71
2021/11/28 08:30:17;;;;;;;19.58;11.10;;;3.10;99.90;;;;;;5113391;28;20036;-71
2021/11/28 08:32:45;;;;;;;19.10;10.23;;;3.10;99.90;;;;;;5113351;28;20036;-70
2021/11/28 08:35:11;;;;;;;19.52;10.13;;;3.20;99.90;;;;;;5113207;28;20373;-70
2021/11/28 08:37:37;;;;;;;16.88;9.00;;;3.30;99.90;;;;;;5113187;28;20075;-71
2021/11/28 08:40:06;;;;;;;18.48;9.45;;;3.40;99.90;;;;;;5113302;28;20067;-71
2021/11/28 08:42:33;;;;;;;17.27;9.45;;;3.50;99.90;;;;;;5113021;28;20050;-70
2021/11/28 08:45:08;;;;;;;15.18;8.70;;;3.50;99.90;;;;;;5111918;28;20052;-70
2021/11/28 08:47:35;;;;;;;14.15;8.20;;;3.60;99.90;;;;;;5112125;28;20469;-70
2021/11/28 08:50:01;;;;;;;14.35;8.07;;;3.70;99.90;;;;;;5113651;28;20115;-71
2021/11/28 08:52:27;;;;;;;13.85;7.35;;;3.70;99.90;;;;;;5119930;28;20070;-71
2021/11/28 08:54:53;;;;;;;13.10;7.13;;;3.80;99.90;;;;;;5134021;27;20039;-70
2021/11/28 08:57:18;;;;;;;9.77;5.88;;;3.80;99.90;;;;;;5132996;28;20035;-71
2021/11/28 08:59:45;;;;;;;10.10;5.30;;;3.90;99.90;;;;;;5115910;27;20031;-71
2021/11/28 09:02:11;;;;;;;7.18;4.10;;;3.90;99.90;;;;;;5137209;27;20031;-71
2021/11/28 09:04:37;;;;;;;6.95;3.92;;;4.00;99.90;;;;;;5135606;27;20043;-71
2021/11/28 09:07:04;;;;;;;8.85;5.05;;;4.00;99.90;;;;;;5118510;27;20039;-71
2021/11/28 09:09:30;;;;;;;11.90;5.88;;;4.10;99.90;;;;;;5135744;27;20046;-71
2021/11/28 09:11:56;;;;;;;11.43;6.22;;;4.10;99.90;;;;;;5137514;27;20039;-71
2021/11/28 09:14:22;;;;;;;9.00;5.75;;;4.20;99.90;;;;;;5136954;27;20046;-71
2021/11/28 09:16:47;;;;;;;12.18;6.32;;;4.20;99.90;;;;;;5136560;27;20031;-71
2021/11/28 09:19:19;;;;;;;11.75;5.85;;;4.30;99.90;;;;;;5136817;27;20039;-71
2021/11/28 09:21:44;;;;;;;15.73;7.13;;;4.30;99.90;;;;;;5135753;27;20460;-71
2021/11/28 09:26:54;;;;;;;14.02;6.47;;;4.40;99.90;;;;;;5136296;27;20488;-71
2021/11/28 09:29:20;;;;;;;12.63;6.65;;;4.50;99.90;;;;;;5136806;27;20046;-72
2021/11/28 09:31:46;;;;;;;11.68;6.75;;;4.50;99.90;;;;;;5136989;27;20047;-72
2021/11/28 09:34:12;;;;;;;11.85;6.93;;;4.60;99.90;;;;;;5135750;27;20076;-72
2021/11/28 09:36:38;;;;;;;12.23;6.85;;;4.70;99.90;;;;;;5136111;27;20484;-71
2021/11/28 09:39:05;;;;;;;12.15;6.38;;;4.70;99.90;;;;;;5135495;27;20396;-72
2021/11/28 09:41:36;;;;;;;12.57;6.70;;;4.70;99.90;;;;;;5136367;27;20036;-72
2021/11/28 09:44:10;;;;;;;11.30;6.90;;;4.70;99.90;;;;;;5136659;27;20047;-72
2021/11/28 09:46:37;;;;;;;11.40;5.90;;;4.70;99.90;;;;;;5135935;27;20038;-72
2021/11/28 09:49:06;;;;;;;11.75;5.82;;;4.70;99.90;;;;;;5136706;27;20050;-71
2021/11/28 09:51:32;;;;;;;11.30;6.07;;;4.70;99.90;;;;;;5136440;27;20551;-72
2021/11/28 09:54:01;;;;;;;8.43;5.38;;;4.70;99.90;;;;;;5136218;27;20035;-70
2021/11/28 09:56:27;;;;;;;8.13;5.18;;;4.70;99.90;;;;;;5135565;27;20039;-71
2021/11/28 09:58:54;;;;;;;9.20;5.25;;;4.70;99.90;;;;;;5136144;27;20499;-72
2021/11/28 10:01:20;;;;;;;10.95;5.15;;;4.70;99.90;;;;;;5136388;27;20136;-71
2021/11/28 10:03:46;;;;;;;8.90;4.78;;;4.70;99.90;;;;;;5135891;27;20168;-72
2021/11/28 10:06:12;;;;;;;7.25;3.97;;;4.70;99.90;;;;;;5134582;27;20106;-72
2021/11/28 10:08:37;;;;;;;7.07;3.50;;;4.70;99.90;;;;;;5134569;27;20084;-72
2021/11/28 10:11:03;;;;;;;6.90;3.60;;;4.70;99.90;;;;;;5135339;27;20032;-72
2021/11/28 10:13:29;;;;;;;8.07;3.95;;;4.70;99.90;;;;;;5135647;27;20488;-72
2021/11/28 10:15:55;;;;;;;4.85;3.03;;;4.70;99.90;;;;;;5134483;27;20064;-72
2021/11/28 10:18:21;;;;;;;4.70;3.17;;;4.80;99.90;;;;;;5135664;27;20035;-72
2021/11/28 10:20:47;;;;;;;5.75;3.03;;;4.80;99.90;;;;;;5134333;27;20070;-71
2021/11/28 10:23:13;;;;;;;6.55;3.05;;;4.80;99.90;;;;;;5135590;27;20093;-72
2021/11/28 10:25:39;;;;;;;6.68;2.40;;;4.80;99.90;;;;;;5135126;27;20031;-72
2021/11/28 10:28:09;;;;;;;2.80;2.13;;;4.90;99.90;;;;;;5134145;27;20039;-71
2021/11/28 10:30:43;;;;;;;2.45;1.58;;;4.90;99.90;;;;;;5135861;27;20140;-70
2021/11/28 10:33:22;;;;;;;3.50;1.50;;;5.00;99.90;;;;;;5135663;27;20043;-71
2021/11/28 10:36:04;;;;;;;1.95;1.17;;;5.00;99.90;;;;;;5135308;27;20126;-71
2021/11/28 10:38:43;;;;;;;3.95;1.75;;;5.00;99.90;;;;;;5135292;27;20051;-71
2021/11/28 10:41:24;;;;;;;1.75;0.80;;;5.10;99.90;;;;;;5134341;27;20052;-71
2021/11/28 10:43:50;;;;;;;1.92;0.43;;;5.10;99.90;;;;;;5135135;27;20373;-71
2021/11/28 10:46:36;;;;;;;1.23;0.40;;;5.10;99.90;;;;;;5134010;27;20045;-71
2021/11/28 10:49:05;;;;;;;2.17;0.40;;;5.00;99.90;;;;;;5134986;27;20046;-71
2021/11/28 10:51:32;;;;;;;0.55;0.30;;;4.90;99.90;;;;;;5116841;27;20127;-71
2021/11/28 10:53:58;;;;;;;2.33;0.47;;;5.00;99.90;;;;;;5135467;27;20039;-71
2021/11/28 10:56:23;;;;;;;3.05;0.70;;;4.90;99.90;;;;;;5135043;27;20510;-70
2021/11/28 10:58:49;;;;;;;1.77;0.73;;;4.90;99.90;;;;;;5133992;27;20071;-70
2021/11/28 11:01:15;;;;;;;2.88;0.75;;;4.90;99.90;;;;;;5134460;27;20046;-71
2021/11/28 11:03:49;;;;;;;1.35;0.70;;;4.80;99.90;;;;;;5116536;27;20544;-70
2021/11/28 11:06:24;;;;;;;1.90;0.60;;;4.80;99.90;;;;;;5133473;27;20053;-71
2021/11/28 11:09:11;;;;;;;5.30;0.77;;;4.80;99.90;;;;;;5135198;27;20389;-70
2021/11/28 11:11:37;;;;;;;1.88;0.45;;;4.80;99.90;;;;;;5133262;27;20391;-71
2021/11/28 11:14:05;;;;;;;1.13;0.60;;;4.90;99.90;;;;;;5134777;27;20042;-70
2021/11/28 11:16:31;;;;;;;4.13;0.60;;;4.90;99.90;;;;;;5134338;27;20114;-71
2021/11/28 11:19:36;;;;;;;1.00;0.30;;;4.90;99.90;;;;;;5134850;27;20039;-70
2021/11/28 11:22:15;;;;;;;;;;;4.90;99.90;;;;;;5135493;27;20035;-70
2021/11/28 11:24:51;;;;;;;2.65;0.47;;;4.90;99.90;;;;;;5132089;27;19968;-70
2021/11/28 11:27:20;;;;;;;0.93;0.47;;;4.90;99.90;;;;;;5134254;27;20031;-71
2021/11/28 11:29:49;;;;;;;1.55;0.32;;;4.80;99.90;;;;;;5132877;27;20054;-71
2021/11/28 11:32:39;;;;;;;3.80;0.60;;;4.80;99.90;;;;;;5134767;27;20480;-70
2021/11/28 11:35:09;;;;;;;1.20;0.65;;;4.70;99.90;;;;;;5134695;27;20494;-70
2021/11/28 11:37:36;;;;;;;1.27;0.80;;;4.60;99.90;;;;;;5132697;27;20100;-70
2021/11/28 11:40:09;;;;;;;0.57;0.40;;;4.50;99.90;;;;;;5134919;27;20049;-69
2021/11/28 11:42:36;;;;;;;0.32;0.30;;;4.40;99.90;;;;;;5133611;27;20477;-70
2021/11/28 11:45:04;;;;;;;1.35;0.30;;;4.30;99.90;;;;;;5134512;27;20404;-71
2021/11/28 11:47:29;;;;;;;1.52;0.43;;;4.10;99.90;;;;;;5133983;27;20481;-69
2021/11/28 11:49:55;;;;;;;1.95;0.40;;;4.20;99.90;;;;;;5132990;28;20076;-70
2021/11/28 11:52:22;;;;;;;2.00;0.50;;;4.10;99.90;;;;;;5133404;28;20040;-70
2021/11/28 11:54:51;;;;;;;1.02;0.43;;;4.10;99.90;;;;;;5134622;27;20049;-70
2021/11/28 11:57:21;;;;;;;0.85;0.30;;;3.90;99.90;;;;;;5133716;27;20031;-69
2021/11/28 11:59:58;;;;;;;3.00;0.60;;;3.90;99.90;;;;;;5116078;28;20027;-70
2021/11/28 12:02:42;;;;;;;3.05;0.50;;;3.70;99.90;;;;;;5133333;28;20461;-70
2021/11/28 12:05:22;;;;;;;;;;;3.70;99.90;;;;;;5134480;27;20122;-69
2021/11/28 12:07:57;;;;;;;1.80;0.50;;;3.60;99.90;;;;;;5133683;27;19915;-70
2021/11/28 12:10:44;;;;;;;1.88;0.50;;;3.60;99.90;;;;;;5134410;27;20039;-70
2021/11/28 12:13:25;;;;;;;3.03;0.60;;;3.60;99.90;;;;;;5134148;27;20043;-70
2021/11/28 12:15:53;;;;;;;1.33;0.20;;;3.70;99.90;;;;;;5133919;28;20042;-70
2021/11/28 12:18:34;;;;;;;4.15;0.90;;;3.60;99.90;;;;;;5132787;27;20049;-69
2021/11/28 12:21:11;;;;;;;2.15;0.70;;;3.60;99.90;;;;;;5133966;27;20084;-69
2021/11/28 12:23:43;;;;;;;2.60;0.80;;;3.70;99.90;;;;;;5132403;27;20047;-70
2021/11/28 12:26:27;;;;;;;1.88;0.88;;;3.70;99.90;;;;;;5133498;27;20082;-69
2021/11/28 12:28:57;;;;;;;;;;;3.80;99.90;;;;;;5134381;28;20043;-69
2021/11/28 12:31:32;;;;;;;2.20;0.77;;;3.80;99.90;;;;;;5132894;27;19944;-70
2021/11/28 12:33:58;;;;;;;3.53;1.13;;;3.90;99.90;;;;;;5133965;27;20043;-70
2021/11/28 12:36:33;;;;;;;7.60;0.88;;;4.00;99.90;;;;;;5136028;27;20043;-70
2021/11/28 12:39:19;;;;;;;3.40;0.80;;;4.00;99.90;;;;;;5138236;27;20126;-71
2021/11/28 12:41:51;;;;;;;1.48;0.70;;;4.00;99.90;;;;;;5137693;27;20118;-74
2021/11/28 12:44:18;;;;;;;3.53;0.70;;;4.10;99.90;;;;;;5136299;27;20401;-71
2021/11/28 12:46:55;;;;;;;2.25;1.17;;;4.10;99.90;;;;;;5137227;27;20096;-72
2021/11/28 12:49:44;;;;;;;2.03;0.68;;;4.10;99.90;;;;;;5136462;27;20561;-71
2021/11/28 12:52:29;;;;;;;2.10;0.98;;;4.20;99.90;;;;;;5137476;27;20117;-71
2021/11/28 12:55:09;;;;;;;8.00;0.70;;;4.10;99.90;;;;;;5137901;27;20047;-71
2021/11/28 12:57:58;;;;;;;4.25;0.50;;;4.10;99.90;;;;;;5137989;27;20126;-71
2021/11/28 13:00:26;;;;;;;4.57;1.02;;;4.20;99.90;;;;;;5139924;27;20504;-72